EWG7ZP EDDB-EDDS
Flight info
| Callsign | EWG7ZP |
|---|---|
| Flight time | N/A |
| Altitude | 25000 |
| Route | KISUC1Q KISUC Z117 ODLUN/N0393F260 DCT GALMA Z94 VAGAB/N0379F240 Z94 GORKO T726 TOSTU/N0373F230 T726 LBU |
| Aircraft | A319/M-SDE3FGHIRWY/LB1 |
Departure
| Time | 2026-05-05 17:08 |
|---|---|
| Airport | Berlin Brandenburg Airport (EDDB) |
Arrival
| Time | N/A |
|---|---|
| Airport | Stuttgart Airport (EDDS) |
| Time | Latitude | Longitude | Altitude | Speed | Heading |
|---|---|---|---|---|---|
| 2026-05-05 16:26 | 52.36155 | 13.51416 | 155 ft | 0 kts | 339° |
| 2026-05-05 16:41 | 52.36154 | 13.51416 | 182 ft | 0 kts | 339° |
| 2026-05-05 16:56 | 52.36149 | 13.51419 | 155 ft | 4 kts | 339° |
| 2026-05-05 16:56 | 52.36128 | 13.51433 | 155 ft | 2 kts | 338° |
| 2026-05-05 16:56 | 52.36105 | 13.51448 | 155 ft | 4 kts | 328° |
| 2026-05-05 16:57 | 52.36085 | 13.51472 | 155 ft | 4 kts | 302° |
| 2026-05-05 16:57 | 52.36080 | 13.51510 | 155 ft | 4 kts | 253° |
| 2026-05-05 16:57 | 52.36089 | 13.51548 | 155 ft | 2 kts | 248° |
| 2026-05-05 16:57 | 52.36090 | 13.51551 | 155 ft | 0 kts | 249° |
| 2026-05-05 17:00 | 52.36090 | 13.51549 | 155 ft | 0 kts | 249° |
| 2026-05-05 17:00 | 52.36088 | 13.51543 | 155 ft | 0 kts | 249° |
| 2026-05-05 17:01 | 52.36087 | 13.51538 | 155 ft | 1 kts | 249° |
| 2026-05-05 17:01 | 52.36080 | 13.51511 | 155 ft | 3 kts | 248° |
| 2026-05-05 17:01 | 52.36071 | 13.51471 | 155 ft | 4 kts | 248° |
| 2026-05-05 17:01 | 52.36059 | 13.51422 | 155 ft | 6 kts | 249° |
| 2026-05-05 17:02 | 52.36043 | 13.51355 | 155 ft | 7 kts | 249° |
| 2026-05-05 17:02 | 52.36026 | 13.51281 | 155 ft | 7 kts | 249° |
| 2026-05-05 17:02 | 52.36005 | 13.51190 | 155 ft | 10 kts | 249° |
| 2026-05-05 17:02 | 52.35980 | 13.51085 | 155 ft | 10 kts | 249° |
| 2026-05-05 17:03 | 52.35955 | 13.50983 | 157 ft | 9 kts | 248° |
| 2026-05-05 17:03 | 52.35930 | 13.50879 | 155 ft | 12 kts | 248° |
| 2026-05-05 17:03 | 52.35897 | 13.50738 | 152 ft | 15 kts | 249° |
| 2026-05-05 17:03 | 52.35824 | 13.50629 | 149 ft | 17 kts | 171° |
| 2026-05-05 17:04 | 52.35746 | 13.50509 | 148 ft | 18 kts | 250° |
| 2026-05-05 17:04 | 52.35700 | 13.50317 | 148 ft | 19 kts | 248° |
| 2026-05-05 17:04 | 52.35668 | 13.50182 | 148 ft | 19 kts | 249° |
| 2026-05-05 17:04 | 52.35619 | 13.49973 | 148 ft | 20 kts | 249° |
| 2026-05-05 17:05 | 52.35566 | 13.49752 | 148 ft | 21 kts | 249° |
| 2026-05-05 17:05 | 52.35511 | 13.49518 | 148 ft | 23 kts | 249° |
| 2026-05-05 17:05 | 52.35454 | 13.49280 | 148 ft | 21 kts | 248° |
| 2026-05-05 17:05 | 52.35400 | 13.49055 | 148 ft | 22 kts | 249° |
| 2026-05-05 17:06 | 52.35344 | 13.48815 | 148 ft | 23 kts | 249° |
| 2026-05-05 17:06 | 52.35284 | 13.48564 | 149 ft | 25 kts | 249° |
| 2026-05-05 17:06 | 52.35161 | 13.48511 | 150 ft | 19 kts | 156° |
| 2026-05-05 17:06 | 52.35098 | 13.48642 | 154 ft | 9 kts | 96° |
| 2026-05-05 17:07 | 52.35097 | 13.48656 | 154 ft | 0 kts | 95° |
| 2026-05-05 17:07 | 52.35096 | 13.48682 | 154 ft | 4 kts | 96° |
| 2026-05-05 17:07 | 52.35088 | 13.48772 | 156 ft | 13 kts | 98° |
| 2026-05-05 17:07 | 52.35074 | 13.48995 | 157 ft | 27 kts | 89° |
| 2026-05-05 17:08 | 52.35150 | 13.49411 | 159 ft | 57 kts | 67° |
| 2026-05-05 17:08 | 52.35374 | 13.50345 | 157 ft | 118 kts | 69° |
| 2026-05-05 17:08 | 52.35731 | 13.51807 | 379 ft | 145 kts | 67° |
| 2026-05-05 17:08 | 52.36025 | 13.53359 | 975 ft | 148 kts | 90° |
| 2026-05-05 17:09 | 52.35478 | 13.54840 | 1388 ft | 168 kts | 144° |
| 2026-05-05 17:09 | 52.34324 | 13.55528 | 1862 ft | 186 kts | 168° |
| 2026-05-05 17:09 | 52.32984 | 13.55530 | 2392 ft | 200 kts | 186° |
| 2026-05-05 17:09 | 52.31648 | 13.54639 | 2897 ft | 218 kts | 215° |
| 2026-05-05 17:10 | 52.30461 | 13.52946 | 3369 ft | 238 kts | 222° |
| 2026-05-05 17:10 | 52.29153 | 13.51054 | 3895 ft | 262 kts | 219° |
| 2026-05-05 17:10 | 52.27821 | 13.49329 | 4749 ft | 269 kts | 220° |
| 2026-05-05 17:10 | 52.26662 | 13.46928 | 5745 ft | 273 kts | 245° |
| 2026-05-05 17:11 | 52.26230 | 13.43976 | 6781 ft | 274 kts | 268° |
| 2026-05-05 17:11 | 52.26271 | 13.40864 | 7828 ft | 274 kts | 271° |
| 2026-05-05 17:11 | 52.26304 | 13.37714 | 8894 ft | 275 kts | 270° |
| 2026-05-05 17:11 | 52.26315 | 13.34608 | 9832 ft | 279 kts | 269° |
| 2026-05-05 17:12 | 52.26314 | 13.31427 | 10707 ft | 282 kts | 268° |
| 2026-05-05 17:12 | 52.26306 | 13.28210 | 11546 ft | 286 kts | 268° |
| 2026-05-05 17:12 | 52.26278 | 13.24945 | 12372 ft | 289 kts | 264° |
| 2026-05-05 17:12 | 52.25895 | 13.21718 | 13184 ft | 292 kts | 251° |
| 2026-05-05 17:13 | 52.25022 | 13.18618 | 13508 ft | 312 kts | 238° |
| 2026-05-05 17:13 | 52.23864 | 13.15521 | 13908 ft | 325 kts | 238° |
| 2026-05-05 17:13 | 52.22725 | 13.12292 | 14531 ft | 331 kts | 242° |
| 2026-05-05 17:13 | 52.21715 | 13.08898 | 15210 ft | 334 kts | 244° |
| 2026-05-05 17:14 | 52.20738 | 13.05446 | 15897 ft | 337 kts | 245° |
| 2026-05-05 17:14 | 52.19769 | 13.01947 | 16573 ft | 340 kts | 245° |
| 2026-05-05 17:14 | 52.18794 | 12.98414 | 17261 ft | 343 kts | 245° |
| 2026-05-05 17:14 | 52.17809 | 12.94868 | 17940 ft | 346 kts | 245° |
| 2026-05-05 17:15 | 52.16800 | 12.91287 | 18552 ft | 349 kts | 245° |
| 2026-05-05 17:15 | 52.15778 | 12.87737 | 19142 ft | 351 kts | 244° |
| 2026-05-05 17:15 | 52.14723 | 12.84120 | 19717 ft | 354 kts | 244° |
| 2026-05-05 17:15 | 52.13654 | 12.80474 | 20317 ft | 357 kts | 244° |
| 2026-05-05 17:16 | 52.12585 | 12.76830 | 20904 ft | 359 kts | 244° |
| 2026-05-05 17:16 | 52.11505 | 12.73142 | 21490 ft | 362 kts | 244° |
| 2026-05-05 17:16 | 52.10440 | 12.69492 | 22061 ft | 364 kts | 243° |
| 2026-05-05 17:16 | 52.09363 | 12.65797 | 22632 ft | 367 kts | 243° |
| 2026-05-05 17:17 | 52.08264 | 12.62037 | 23194 ft | 369 kts | 243° |
| 2026-05-05 17:17 | 52.07164 | 12.58281 | 23722 ft | 371 kts | 243° |
| 2026-05-05 17:17 | 52.06042 | 12.54453 | 24215 ft | 373 kts | 243° |
| 2026-05-05 17:17 | 52.04923 | 12.50641 | 24656 ft | 375 kts | 243° |
| 2026-05-05 17:18 | 52.03830 | 12.46926 | 24804 ft | 375 kts | 243° |
| 2026-05-05 17:18 | 52.02700 | 12.43108 | 24842 ft | 375 kts | 243° |
| 2026-05-05 17:18 | 52.01571 | 12.39295 | 24843 ft | 375 kts | 243° |
| 2026-05-05 17:18 | 52.00438 | 12.35475 | 25017 ft | 377 kts | 243° |
| 2026-05-05 17:19 | 51.99303 | 12.31636 | 25258 ft | 377 kts | 243° |
| 2026-05-05 17:19 | 51.98168 | 12.27796 | 25516 ft | 378 kts | 243° |
| 2026-05-05 17:19 | 51.97032 | 12.23941 | 25747 ft | 380 kts | 243° |
| 2026-05-05 17:19 | 51.95910 | 12.20150 | 25826 ft | 373 kts | 243° |
| 2026-05-05 17:20 | 51.94823 | 12.16486 | 25837 ft | 359 kts | 243° |
| 2026-05-05 17:20 | 51.93759 | 12.12991 | 25842 ft | 347 kts | 239° |
| 2026-05-05 17:20 | 51.92279 | 12.09972 | 25841 ft | 341 kts | 221° |
| 2026-05-05 17:20 | 51.90312 | 12.07847 | 25843 ft | 341 kts | 209° |
| 2026-05-05 17:21 | 51.88214 | 12.06058 | 25838 ft | 341 kts | 208° |
| 2026-05-05 17:21 | 51.86103 | 12.04285 | 25838 ft | 341 kts | 208° |
| 2026-05-05 17:21 | 51.83992 | 12.02521 | 25835 ft | 341 kts | 208° |
| 2026-05-05 17:22 | 51.79801 | 11.99019 | 25835 ft | 341 kts | 208° |
| 2026-05-05 17:22 | 51.77712 | 11.97206 | 25835 ft | 341 kts | 210° |
| 2026-05-05 17:22 | 51.75698 | 11.95356 | 25832 ft | 340 kts | 211° |
| 2026-05-05 17:22 | 51.73712 | 11.93491 | 25832 ft | 340 kts | 211° |
| 2026-05-05 17:23 | 51.71663 | 11.91560 | 25831 ft | 340 kts | 211° |
| 2026-05-05 17:23 | 51.69644 | 11.89662 | 25831 ft | 340 kts | 211° |
| 2026-05-05 17:23 | 51.67592 | 11.87745 | 25820 ft | 340 kts | 211° |
| 2026-05-05 17:23 | 51.65541 | 11.85841 | 25828 ft | 340 kts | 210° |
| 2026-05-05 17:24 | 51.63489 | 11.83951 | 25826 ft | 340 kts | 210° |
| 2026-05-05 17:24 | 51.61431 | 11.82058 | 25830 ft | 340 kts | 210° |
| 2026-05-05 17:24 | 51.59371 | 11.80165 | 25831 ft | 341 kts | 210° |
| 2026-05-05 17:24 | 51.58061 | 11.78962 | 25830 ft | 341 kts | 210° |
| 2026-05-05 17:25 | 51.55931 | 11.77102 | 25823 ft | 340 kts | 210° |
| 2026-05-05 17:25 | 51.54737 | 11.76027 | 25822 ft | 340 kts | 210° |
| 2026-05-05 17:25 | 51.52426 | 11.73896 | 25820 ft | 340 kts | 211° |
| 2026-05-05 17:25 | 51.50384 | 11.71991 | 25820 ft | 340 kts | 211° |
| 2026-05-05 17:26 | 51.48334 | 11.70082 | 25823 ft | 340 kts | 210° |
| 2026-05-05 17:26 | 51.46284 | 11.68191 | 25822 ft | 340 kts | 210° |
| 2026-05-05 17:26 | 51.44797 | 11.66828 | 25819 ft | 340 kts | 210° |
| 2026-05-05 17:26 | 51.42740 | 11.64949 | 25820 ft | 340 kts | 210° |
| 2026-05-05 17:27 | 51.40683 | 11.63077 | 25816 ft | 340 kts | 210° |
| 2026-05-05 17:27 | 51.38882 | 11.61446 | 25816 ft | 340 kts | 210° |
| 2026-05-05 17:27 | 51.36821 | 11.59581 | 25816 ft | 340 kts | 210° |
| 2026-05-05 17:27 | 51.34764 | 11.57716 | 25816 ft | 340 kts | 210° |
| 2026-05-05 17:28 | 51.32731 | 11.55877 | 25813 ft | 340 kts | 210° |
| 2026-05-05 17:28 | 51.30670 | 11.54021 | 25813 ft | 340 kts | 210° |
| 2026-05-05 17:28 | 51.28782 | 11.52327 | 25814 ft | 340 kts | 210° |
| 2026-05-05 17:28 | 51.26664 | 11.50430 | 25829 ft | 340 kts | 209° |
| 2026-05-05 17:29 | 51.24598 | 11.48581 | 25824 ft | 340 kts | 209° |
| 2026-05-05 17:29 | 51.22576 | 11.46775 | 25819 ft | 340 kts | 208° |
| 2026-05-05 17:29 | 51.20510 | 11.44930 | 25817 ft | 340 kts | 209° |
| 2026-05-05 17:29 | 51.18482 | 11.43114 | 25816 ft | 340 kts | 209° |
| 2026-05-05 17:30 | 51.16408 | 11.41258 | 25813 ft | 341 kts | 209° |
| 2026-05-05 17:30 | 51.14341 | 11.39416 | 25813 ft | 341 kts | 208° |
| 2026-05-05 17:30 | 51.12437 | 11.37724 | 25813 ft | 341 kts | 208° |
| 2026-05-05 17:30 | 51.10370 | 11.35893 | 25814 ft | 341 kts | 208° |
| 2026-05-05 17:31 | 51.08298 | 11.34054 | 25812 ft | 341 kts | 208° |
| 2026-05-05 17:31 | 51.06230 | 11.32216 | 25809 ft | 341 kts | 208° |
| 2026-05-05 17:31 | 51.04229 | 11.30443 | 25809 ft | 341 kts | 208° |
| 2026-05-05 17:31 | 51.02154 | 11.28608 | 25805 ft | 341 kts | 208° |
| 2026-05-05 17:32 | 51.00079 | 11.26778 | 25802 ft | 341 kts | 208° |
| 2026-05-05 17:32 | 50.97961 | 11.25107 | 25804 ft | 341 kts | 200° |
| 2026-05-05 17:32 | 50.95704 | 11.23951 | 25795 ft | 341 kts | 198° |
| 2026-05-05 17:32 | 50.93527 | 11.22456 | 25800 ft | 341 kts | 205° |
| 2026-05-05 17:33 | 50.91404 | 11.20794 | 25794 ft | 341 kts | 205° |
| 2026-05-05 17:33 | 50.89272 | 11.19134 | 25794 ft | 341 kts | 205° |
| 2026-05-05 17:33 | 50.87140 | 11.17473 | 25795 ft | 342 kts | 205° |
| 2026-05-05 17:33 | 50.85009 | 11.15804 | 25795 ft | 342 kts | 207° |
| 2026-05-05 17:34 | 50.82991 | 11.13813 | 25798 ft | 342 kts | 212° |
| 2026-05-05 17:34 | 50.81011 | 11.11721 | 25803 ft | 342 kts | 212° |
| 2026-05-05 17:34 | 50.79056 | 11.09656 | 25793 ft | 343 kts | 212° |
| 2026-05-05 17:34 | 50.77068 | 11.07557 | 25789 ft | 343 kts | 212° |
| 2026-05-05 17:35 | 50.75080 | 11.05459 | 25796 ft | 344 kts | 212° |
| 2026-05-05 17:35 | 50.73090 | 11.03361 | 25799 ft | 344 kts | 212° |
| 2026-05-05 17:35 | 50.71095 | 11.01259 | 25797 ft | 344 kts | 212° |
| 2026-05-05 17:35 | 50.69132 | 10.99141 | 25799 ft | 345 kts | 213° |
| 2026-05-05 17:36 | 50.67165 | 10.96978 | 25801 ft | 345 kts | 213° |
| 2026-05-05 17:36 | 50.65201 | 10.94800 | 25803 ft | 345 kts | 213° |